createdAt,value
2019-04-26T00:00:49.753Z,53.22
2019-04-26T00:03:20.050Z,53.65
2019-04-26T00:05:48.747Z,54.18
2019-04-26T00:08:17.949Z,54.53
2019-04-26T00:10:57.238Z,55.28
2019-04-26T00:13:33.246Z,54.87
2019-04-26T00:16:03.831Z,55.64
2019-04-26T00:18:32.631Z,54.61
2019-04-26T00:21:01.330Z,56.28
2019-04-26T00:23:30.757Z,55.38
2019-04-26T00:25:59.625Z,54.80
2019-04-26T00:28:28.320Z,54.42
2019-04-26T00:30:57.060Z,54.14
2019-04-26T00:33:25.757Z,54.29
2019-04-26T00:35:54.459Z,54.21
2019-04-26T00:38:23.288Z,54.32
2019-04-26T00:40:52.885Z,54.75
2019-04-26T00:43:22.685Z,54.89
2019-04-26T00:45:52.785Z,54.49
2019-04-26T00:48:23.848Z,54.33
2019-04-26T00:50:53.649Z,54.52
2019-04-26T00:53:24.405Z,54.34
2019-04-26T00:55:53.900Z,54.68
2019-04-26T00:58:24.463Z,54.24
2019-04-26T01:00:53.845Z,54.52
2019-04-26T01:03:22.813Z,54.17
2019-04-26T01:05:59.820Z,54.62
2019-04-26T01:08:21.978Z,54.40
2019-04-26T01:10:50.683Z,54.40
2019-04-26T01:13:19.946Z,54.18
2019-04-26T01:15:49.097Z,54.91
2019-04-26T01:18:18.219Z,55.17
2019-04-26T01:20:49.316Z,55.06
2019-04-26T01:23:20.941Z,55.10
2019-04-26T01:26:12.021Z,54.97
2019-04-26T01:28:43.652Z,55.29
2019-04-26T01:31:13.763Z,55.64
2019-04-26T01:33:44.639Z,54.92
2019-04-26T01:36:13.862Z,54.68
2019-04-26T01:38:44.408Z,54.63
2019-04-26T01:41:17.149Z,55.00
2019-04-26T01:43:54.879Z,56.07
2019-04-26T01:46:33.979Z,56.65
2019-04-26T01:49:08.288Z,55.55
2019-04-26T01:51:45.340Z,55.84
2019-04-26T01:54:16.936Z,55.41
2019-04-26T01:56:46.531Z,55.58
2019-04-26T01:59:17.288Z,55.97
2019-04-26T02:02:02.998Z,56.24
2019-04-26T02:04:33.524Z,56.07
2019-04-26T02:07:02.595Z,55.44
2019-04-26T02:09:31.390Z,55.01
2019-04-26T02:12:00.737Z,54.84
2019-04-26T02:14:29.536Z,55.65
2019-04-26T02:16:59.058Z,55.36
2019-04-26T02:19:27.721Z,55.43
2019-04-26T02:22:07.010Z,56.46
2019-04-26T02:24:37.304Z,57.27
2019-04-26T02:27:07.669Z,57.00
2019-04-26T02:29:36.293Z,57.44
2019-04-26T02:32:07.432Z,56.27
2019-04-26T02:34:38.050Z,57.08
2019-04-26T02:37:10.205Z,56.26
2019-04-26T02:39:41.221Z,57.05
2019-04-26T02:42:31.005Z,55.90
2019-04-26T02:45:04.015Z,55.38
2019-04-26T02:47:39.028Z,55.38
2019-04-26T02:50:14.686Z,55.27
2019-04-26T02:52:48.902Z,55.23
2019-04-26T02:55:42.413Z,55.83
2019-04-26T02:58:12.477Z,55.21
2019-04-26T03:00:42.522Z,55.31
2019-04-26T03:03:12.047Z,55.31
2019-04-26T03:05:42.848Z,55.60
2019-04-26T03:08:14.447Z,55.22
2019-04-26T03:10:45.239Z,55.13
2019-04-26T03:13:18.413Z,54.86
2019-04-26T03:15:51.615Z,55.64
2019-04-26T03:18:41.565Z,56.32
2019-04-26T03:21:28.729Z,55.67
2019-04-26T03:24:00.334Z,55.47
2019-04-26T03:26:52.787Z,55.03
2019-04-26T03:29:27.040Z,58.03
2019-04-26T03:32:16.628Z,56.81
2019-04-26T03:34:54.943Z,57.55
2019-04-26T03:37:33.744Z,56.79
2019-04-26T03:40:18.042Z,56.04
2019-04-26T03:43:04.626Z,56.30
2019-04-26T03:45:40.882Z,56.50
2019-04-26T03:48:27.444Z,56.33
2019-04-26T03:51:08.014Z,56.65
2019-04-26T03:53:40.404Z,57.03
2019-04-26T03:56:17.424Z,57.18
2019-04-26T03:59:02.223Z,56.61
2019-04-26T04:01:39.579Z,55.75
2019-04-26T04:04:11.979Z,55.49
2019-04-26T04:06:56.735Z,55.34
2019-04-26T04:09:11.716Z,55.73
2019-04-26T04:11:49.920Z,56.84
2019-04-26T04:14:27.410Z,56.57
2019-04-26T04:17:09.291Z,56.51
2019-04-26T04:19:54.265Z,56.21
2019-04-26T04:22:25.744Z,56.40
2019-04-26T04:25:06.459Z,56.08
2019-04-26T04:27:47.956Z,55.80
2019-04-26T04:30:20.394Z,56.34
2019-04-26T04:33:24.840Z,56.26
2019-04-26T04:35:56.454Z,56.41
2019-04-26T04:38:34.006Z,56.06
2019-04-26T04:41:22.284Z,55.95
2019-04-26T04:44:16.413Z,55.92
2019-04-26T04:47:23.644Z,57.51
2019-04-26T04:49:59.461Z,58.50
2019-04-26T04:52:33.663Z,57.61
2019-04-26T04:55:24.637Z,57.55
2019-04-26T04:58:05.256Z,57.30
2019-04-26T05:01:11.253Z,57.18
2019-04-26T05:03:46.974Z,57.45
2019-04-26T05:06:41.133Z,56.98
2019-04-26T05:09:12.742Z,57.49
2019-04-26T05:11:59.030Z,56.84
2019-04-26T05:14:33.592Z,56.74
2019-04-26T05:17:16.929Z,55.80
2019-04-26T05:19:54.858Z,55.00
2019-04-26T05:22:35.440Z,55.98
2019-04-26T05:25:11.134Z,55.00
2019-04-26T05:27:44.344Z,54.92
2019-04-26T05:30:23.122Z,54.60
2019-04-26T05:33:18.667Z,54.98
2019-04-26T05:35:57.781Z,54.95
2019-04-26T05:38:41.347Z,56.12
2019-04-26T05:41:30.155Z,57.04
2019-04-26T05:44:17.980Z,58.49
2019-04-26T05:47:25.383Z,57.99
2019-04-26T05:50:30.051Z,56.08
2019-04-26T05:53:31.324Z,55.92
2019-04-26T05:56:22.639Z,53.55
2019-04-26T05:59:15.367Z,54.10
2019-04-26T06:02:34.543Z,54.15
2019-04-26T06:05:32.589Z,53.46
2019-04-26T06:08:31.534Z,52.69
2019-04-26T06:11:06.994Z,51.90
2019-04-26T06:13:49.197Z,54.18
2019-04-26T06:16:40.021Z,55.55
2019-04-26T06:19:19.117Z,54.28
2019-04-26T06:22:00.037Z,52.94
2019-04-26T06:24:46.585Z,54.47
2019-04-26T06:27:28.688Z,54.49
2019-04-26T06:30:12.155Z,54.21
2019-04-26T06:32:55.923Z,54.37
2019-04-26T06:35:20.414Z,53.83
2019-04-26T06:38:05.426Z,53.37
2019-04-26T06:41:00.198Z,52.60
2019-04-26T06:43:33.412Z,53.30
2019-04-26T06:46:38.025Z,51.96
2019-04-26T06:49:29.109Z,52.20
2019-04-26T06:52:12.718Z,52.08
2019-04-26T06:55:11.188Z,53.83
2019-04-26T06:57:59.980Z,52.03
2019-04-26T07:00:42.858Z,51.36
2019-04-26T07:03:29.562Z,52.20
2019-04-26T07:06:04.966Z,50.25
2019-04-26T07:08:57.309Z,49.95
2019-04-26T07:11:51.596Z,51.68
2019-04-26T07:14:42.292Z,51.09
2019-04-26T07:17:31.561Z,50.32
2019-04-26T07:20:21.662Z,49.56
2019-04-26T07:23:11.022Z,50.30
2019-04-26T07:26:15.462Z,50.04
2019-04-26T07:29:07.028Z,49.52
2019-04-26T07:31:57.842Z,49.75
2019-04-26T07:34:43.002Z,49.49
2019-04-26T07:37:43.261Z,49.29
2019-04-26T07:40:28.072Z,49.50
2019-04-26T07:43:26.670Z,48.35
2019-04-26T07:46:29.684Z,47.57
2019-04-26T07:49:13.459Z,48.89
2019-04-26T07:52:04.347Z,46.89
2019-04-26T07:55:08.698Z,48.00
2019-04-26T07:58:06.895Z,47.28
2019-04-26T08:00:44.999Z,47.49
2019-04-26T08:03:29.475Z,46.35
2019-04-26T08:06:15.843Z,48.19
2019-04-26T08:08:48.430Z,48.87
2019-04-26T08:11:22.627Z,48.20
2019-04-26T08:14:15.136Z,49.57
2019-04-26T08:16:54.101Z,49.56
2019-04-26T08:19:26.115Z,48.35
2019-04-26T08:22:11.459Z,46.94
2019-04-26T08:24:30.648Z,46.15
2019-04-26T08:27:13.416Z,46.07
2019-04-26T08:29:38.205Z,44.81
2019-04-26T08:32:11.730Z,45.15
2019-04-26T08:34:43.477Z,44.95
2019-04-26T08:37:36.610Z,46.00
2019-04-26T08:40:05.882Z,44.98
2019-04-26T08:42:37.645Z,45.41
2019-04-26T08:45:14.915Z,44.41
2019-04-26T08:47:50.854Z,44.45
2019-04-26T08:50:22.272Z,43.67
2019-04-26T08:52:52.734Z,44.73
2019-04-26T08:55:22.633Z,44.43
2019-04-26T08:57:54.266Z,44.88
2019-04-26T09:00:35.224Z,44.38
2019-04-26T09:03:11.717Z,42.67
2019-04-26T09:05:49.985Z,43.59
2019-04-26T09:08:20.419Z,43.49
2019-04-26T09:10:52.568Z,43.52
2019-04-26T09:13:24.163Z,42.85
2019-04-26T09:16:04.857Z,42.43
2019-04-26T09:18:43.004Z,42.45
2019-04-26T09:21:04.281Z,42.88
2019-04-26T09:23:40.181Z,44.84
2019-04-26T09:26:13.611Z,43.68
2019-04-26T09:28:43.982Z,43.40
2019-04-26T09:31:30.212Z,42.38
2019-04-26T09:34:12.240Z,43.17
2019-04-26T09:36:40.938Z,42.56
2019-04-26T09:39:11.299Z,43.46
2019-04-26T09:41:40.360Z,41.56
2019-04-26T09:44:10.630Z,41.49
2019-04-26T09:46:54.272Z,40.94
2019-04-26T09:49:30.645Z,40.02
2019-04-26T09:52:00.183Z,40.30
2019-04-26T09:54:28.815Z,40.13
2019-04-26T09:56:57.435Z,39.43
2019-04-26T09:59:26.259Z,40.45
2019-04-26T10:01:55.405Z,40.58
2019-04-26T10:04:25.433Z,39.23
2019-04-26T10:06:54.100Z,39.51
2019-04-26T10:09:24.191Z,38.73
2019-04-26T10:11:58.277Z,39.43
2019-04-26T10:14:28.577Z,38.55
2019-04-26T10:16:58.994Z,38.28
2019-04-26T10:19:45.489Z,37.56
2019-04-26T10:22:14.179Z,36.80
2019-04-26T10:24:42.875Z,36.95
2019-04-26T10:27:11.607Z,35.40
2019-04-26T10:29:40.304Z,35.50
2019-04-26T10:32:09.304Z,32.82
2019-04-26T10:34:38.035Z,33.94
2019-04-26T10:37:07.995Z,32.99
2019-04-26T10:39:37.103Z,33.05
2019-04-26T10:42:05.907Z,33.54
2019-04-26T10:44:35.774Z,33.60
2019-04-26T10:47:06.041Z,33.46
2019-04-26T10:49:46.400Z,31.90
2019-04-26T10:52:17.959Z,32.25
2019-04-26T10:55:04.454Z,32.27
2019-04-26T10:57:34.720Z,30.46
2019-04-26T11:00:04.983Z,30.02
2019-04-26T11:02:33.715Z,29.52
2019-04-26T11:05:02.406Z,29.02
2019-04-26T11:07:31.034Z,28.44
2019-04-26T11:10:02.818Z,28.80
2019-04-26T11:12:30.948Z,28.52
2019-04-26T11:14:59.684Z,29.43
2019-04-26T11:17:28.420Z,29.42
2019-04-26T11:19:57.132Z,29.29
2019-04-26T11:22:29.309Z,28.98
2019-04-26T11:24:56.406Z,29.97
2019-04-26T11:27:25.040Z,28.76
2019-04-26T11:29:54.284Z,27.95
2019-04-26T11:32:23.047Z,28.95
2019-04-26T11:34:54.562Z,28.52
2019-04-26T11:37:22.165Z,28.59
2019-04-26T11:39:50.924Z,27.82
2019-04-26T11:42:19.690Z,27.39
2019-04-26T11:44:48.394Z,25.91
2019-04-26T11:47:17.130Z,26.07
2019-04-26T11:49:45.825Z,27.98
2019-04-26T11:52:14.527Z,25.14
2019-04-26T11:54:43.271Z,25.15
2019-04-26T11:57:13.519Z,24.72
2019-04-26T11:59:42.355Z,26.05
2019-04-26T12:02:12.339Z,27.22
2019-04-26T12:04:43.073Z,27.45
2019-04-26T12:07:29.596Z,26.33
2019-04-26T12:09:59.856Z,26.55
2019-04-26T12:12:28.553Z,26.83
2019-04-26T12:14:58.123Z,26.88
2019-04-26T12:17:27.179Z,25.55
2019-04-26T12:19:55.902Z,26.43
2019-04-26T12:22:24.634Z,25.44
2019-04-26T12:24:53.336Z,25.72
2019-04-26T12:27:22.240Z,26.84
2019-04-26T12:29:51.007Z,27.29
2019-04-26T12:32:19.706Z,26.50
2019-04-26T12:34:48.406Z,25.69
2019-04-26T12:37:19.861Z,28.46
2019-04-26T12:39:47.552Z,28.59
2019-04-26T12:42:16.756Z,28.77
2019-04-26T12:44:49.769Z,26.81
2019-04-26T12:47:25.739Z,28.82
2019-04-26T12:49:58.549Z,28.38
2019-04-26T12:52:24.817Z,27.38
2019-04-26T12:54:53.515Z,26.48
2019-04-26T12:57:23.183Z,26.85
2019-04-26T12:59:51.881Z,27.35
2019-04-26T13:02:21.865Z,26.70
2019-04-26T13:04:50.616Z,27.57
2019-04-26T13:07:23.959Z,27.96
2019-04-26T13:10:09.142Z,28.51
2019-04-26T13:12:39.405Z,28.79
2019-04-26T13:16:02.925Z,28.61
2019-04-26T13:18:32.121Z,28.20
2019-04-26T13:21:02.973Z,27.13
2019-04-26T13:23:31.420Z,27.76
2019-04-26T13:26:01.561Z,26.54
2019-04-26T13:28:30.314Z,26.41
2019-04-26T13:31:02.031Z,26.74
2019-04-26T13:33:29.408Z,27.72
2019-04-26T13:36:05.412Z,26.48
2019-04-26T13:38:28.489Z,26.39
2019-04-26T13:40:59.646Z,26.69
2019-04-26T13:43:28.777Z,26.52
2019-04-26T13:46:15.376Z,26.47
2019-04-26T13:48:51.589Z,27.33
2019-04-26T13:51:33.965Z,25.89
2019-04-26T13:54:02.666Z,27.87
2019-04-26T13:56:32.058Z,26.66
2019-04-26T13:59:01.746Z,26.19
2019-04-26T14:01:30.438Z,27.06
2019-04-26T14:04:02.426Z,26.23
2019-04-26T14:06:29.644Z,26.22
2019-04-26T14:09:02.724Z,25.91
2019-04-26T14:11:29.581Z,25.98
2019-04-26T14:14:00.150Z,26.47
2019-04-26T14:16:29.559Z,26.56
2019-04-26T14:18:58.258Z,25.98
2019-04-26T14:21:29.140Z,25.36
2019-04-26T14:24:14.079Z,25.91
2019-04-26T14:26:44.372Z,27.25
2019-04-26T14:29:12.997Z,27.21
2019-04-26T14:31:41.699Z,26.29
2019-04-26T14:34:12.037Z,26.71
2019-04-26T14:36:43.606Z,26.53
2019-04-26T14:39:14.898Z,26.23
2019-04-26T14:41:41.892Z,25.04
2019-04-26T14:44:15.609Z,25.94
2019-04-26T14:46:48.561Z,25.31
2019-04-26T14:49:11.453Z,26.15
2019-04-26T14:51:40.690Z,25.59
2019-04-26T14:54:11.540Z,25.44
2019-04-26T14:56:51.765Z,26.69
2019-04-26T14:59:11.889Z,25.64
2019-04-26T15:01:45.427Z,25.29
2019-04-26T15:04:33.066Z,27.17
2019-04-26T15:07:04.005Z,26.21
2019-04-26T15:09:34.700Z,26.18
2019-04-26T15:12:03.526Z,27.20
2019-04-26T15:14:33.255Z,25.78
2019-04-26T15:17:02.897Z,27.12
2019-04-26T15:19:34.896Z,27.55
2019-04-26T15:22:04.106Z,29.70
2019-04-26T15:24:35.164Z,26.97
2019-04-26T15:27:03.365Z,26.34
2019-04-26T15:29:32.602Z,27.50
2019-04-26T15:32:04.819Z,28.25
2019-04-26T15:34:31.650Z,28.51
2019-04-26T15:37:00.379Z,27.29
2019-04-26T15:39:36.526Z,27.07
2019-04-26T15:42:18.955Z,27.38
2019-04-26T15:45:04.323Z,27.71
2019-04-26T15:47:34.644Z,27.62
2019-04-26T15:50:10.043Z,27.20
2019-04-26T15:52:38.562Z,29.67
2019-04-26T15:55:07.399Z,30.63
2019-04-26T15:57:36.107Z,30.85
2019-04-26T16:00:07.201Z,31.05
2019-04-26T16:02:36.093Z,31.30
2019-04-26T16:05:06.293Z,32.06
2019-04-26T16:07:35.003Z,32.51
2019-04-26T16:10:04.532Z,32.49
2019-04-26T16:12:33.238Z,32.42
2019-04-26T16:15:02.405Z,32.45
2019-04-26T16:17:31.251Z,32.92
2019-04-26T16:20:01.833Z,33.79
2019-04-26T16:22:32.750Z,33.21
2019-04-26T16:25:04.063Z,33.75
2019-04-26T16:27:34.174Z,34.05
2019-04-26T16:30:06.410Z,33.57
2019-04-26T16:32:39.659Z,34.63
2019-04-26T16:35:08.362Z,34.43
2019-04-26T16:37:37.096Z,33.50
2019-04-26T16:40:07.912Z,33.37
2019-04-26T16:42:37.808Z,33.78
2019-04-26T16:45:08.434Z,33.66
2019-04-26T16:47:44.990Z,34.90
2019-04-26T16:50:08.434Z,34.23
2019-04-26T16:52:42.276Z,34.71
2019-04-26T16:55:18.302Z,34.81
2019-04-26T16:57:44.006Z,35.15
2019-04-26T17:00:08.765Z,35.83
2019-04-26T17:02:37.499Z,35.17
2019-04-26T17:05:19.204Z,34.93
2019-04-26T17:07:39.414Z,34.88
2019-04-26T17:10:08.197Z,34.65
2019-04-26T17:12:36.965Z,34.77
2019-04-26T17:15:07.804Z,34.78
2019-04-26T17:17:36.493Z,34.73
2019-04-26T17:20:10.860Z,34.73
2019-04-26T17:22:58.586Z,35.30
2019-04-26T17:25:26.872Z,34.67
2019-04-26T17:27:54.533Z,34.25
2019-04-26T17:30:24.796Z,34.51
2019-04-26T17:32:55.194Z,34.63
2019-04-26T17:35:25.399Z,34.46
2019-04-26T17:37:57.390Z,34.44
2019-04-26T17:40:25.437Z,34.76
2019-04-26T17:42:55.137Z,34.33
2019-04-26T17:45:23.762Z,33.66
2019-04-26T17:47:52.982Z,34.53
2019-04-26T17:50:21.821Z,34.61
2019-04-26T17:52:51.566Z,35.16
2019-04-26T17:55:20.398Z,36.19
2019-04-26T17:57:50.674Z,36.07
2019-04-26T18:00:27.469Z,36.96
2019-04-26T18:02:51.720Z,36.77
2019-04-26T18:05:23.188Z,37.18
2019-04-26T18:07:58.375Z,37.18
2019-04-26T18:10:21.715Z,37.37
2019-04-26T18:12:50.852Z,38.08
2019-04-26T18:15:19.705Z,37.82
2019-04-26T18:17:53.171Z,37.95
2019-04-26T18:20:33.538Z,38.42
2019-04-26T18:23:10.084Z,38.79
2019-04-26T18:25:37.235Z,38.66
2019-04-26T18:28:08.768Z,39.27
2019-04-26T18:30:36.356Z,39.36
2019-04-26T18:33:05.235Z,38.96
2019-04-26T18:35:33.941Z,38.90
2019-04-26T18:38:03.735Z,39.52
2019-04-26T18:40:38.989Z,39.37
2019-04-26T18:43:03.394Z,39.62
2019-04-26T18:45:32.188Z,39.91
2019-04-26T18:48:01.941Z,39.98
2019-04-26T18:50:32.833Z,40.05
2019-04-26T18:53:03.531Z,40.61
2019-04-26T18:55:34.484Z,40.43
2019-04-26T18:58:06.145Z,40.85
2019-04-26T19:00:36.507Z,41.08
2019-04-26T19:03:05.977Z,41.30
2019-04-26T19:05:34.767Z,41.06
2019-04-26T19:08:05.137Z,40.77
2019-04-26T19:10:34.450Z,40.87
2019-04-26T19:13:07.800Z,40.18
2019-04-26T19:15:44.026Z,40.09
2019-04-26T19:18:32.124Z,41.00
2019-04-26T19:21:11.562Z,40.65
2019-04-26T19:23:41.550Z,40.94
2019-04-26T19:26:13.748Z,40.95
2019-04-26T19:28:42.912Z,40.81
2019-04-26T19:31:12.779Z,40.47
2019-04-26T19:33:42.821Z,40.46
2019-04-26T19:36:13.580Z,40.71
2019-04-26T19:38:45.182Z,40.69
2019-04-26T19:41:12.771Z,40.53
2019-04-26T19:43:43.653Z,40.84
2019-04-26T19:46:17.105Z,40.83
2019-04-26T19:49:03.357Z,41.02
2019-04-26T19:51:36.531Z,41.00
2019-04-26T19:54:06.832Z,41.06
2019-04-26T19:56:37.102Z,41.26
2019-04-26T19:59:05.802Z,41.23
2019-04-26T20:01:34.635Z,41.35
2019-04-26T20:04:03.270Z,41.24
2019-04-26T20:06:32.202Z,41.39
2019-04-26T20:09:02.437Z,41.51
2019-04-26T20:11:31.691Z,41.46
2019-04-26T20:14:01.125Z,41.54
2019-04-26T20:16:32.457Z,41.03
2019-04-26T20:19:01.385Z,41.24
2019-04-26T20:21:32.614Z,41.86
2019-04-26T20:24:01.308Z,41.90
2019-04-26T20:26:31.502Z,41.98
2019-04-26T20:29:00.278Z,41.80
2019-04-26T20:31:30.751Z,41.83
2019-04-26T20:34:01.535Z,42.10
2019-04-26T20:36:37.181Z,41.91
2019-04-26T20:39:01.777Z,41.83
2019-04-26T20:41:32.209Z,41.83
2019-04-26T20:44:07.346Z,42.10
2019-04-26T20:46:34.351Z,42.33
2019-04-26T20:49:07.843Z,42.48
2019-04-26T20:51:32.391Z,42.69
2019-04-26T20:54:02.033Z,42.76
2019-04-26T20:56:31.775Z,43.08
2019-04-26T20:59:01.545Z,43.28
2019-04-26T21:01:32.012Z,43.20
2019-04-26T21:04:02.030Z,43.61
2019-04-26T21:06:33.880Z,43.68
2019-04-26T21:09:03.287Z,43.53
2019-04-26T21:11:37.237Z,43.49
2019-04-26T21:14:07.495Z,43.50
2019-04-26T21:16:32.581Z,43.58
2019-04-26T21:19:01.843Z,44.14
2019-04-26T21:21:32.105Z,44.15
2019-04-26T21:24:03.651Z,44.09
2019-04-26T21:26:51.418Z,44.23
2019-04-26T21:29:31.677Z,43.99
2019-04-26T21:32:21.935Z,44.26
2019-04-26T21:34:53.839Z,44.37
2019-04-26T21:37:30.182Z,44.28
2019-04-26T21:40:16.158Z,44.75
2019-04-26T21:42:45.081Z,45.10
2019-04-26T21:45:13.449Z,45.23
2019-04-26T21:47:43.480Z,45.06
2019-04-26T21:50:13.559Z,45.17
2019-04-26T21:52:43.337Z,45.20
2019-04-26T21:55:12.867Z,45.27
2019-04-26T21:57:41.565Z,45.39
2019-04-26T22:00:28.421Z,45.38
2019-04-26T22:02:57.234Z,45.63
2019-04-26T22:05:25.932Z,45.91
2019-04-26T22:07:54.672Z,46.13
2019-04-26T22:10:33.851Z,46.35
2019-04-26T22:13:05.662Z,46.51
2019-04-26T22:15:43.806Z,46.39
2019-04-26T22:18:30.673Z,46.57
2019-04-26T22:21:03.659Z,46.86
2019-04-26T22:23:53.184Z,46.83
2019-04-26T22:26:23.678Z,47.13
2019-04-26T22:28:53.385Z,47.43
2019-04-26T22:31:23.716Z,47.26
2019-04-26T22:33:52.812Z,47.10
2019-04-26T22:36:23.336Z,47.16
2019-04-26T22:38:55.631Z,47.44
2019-04-26T22:41:24.378Z,47.94
2019-04-26T22:43:55.259Z,47.73
2019-04-26T22:46:44.409Z,47.77
2019-04-26T22:49:05.778Z,48.01
2019-04-26T22:51:37.077Z,48.18
2019-04-26T22:54:06.219Z,49.51
2019-04-26T22:56:37.222Z,48.69
2019-04-26T22:59:07.626Z,48.24
2019-04-26T23:01:39.301Z,48.07
2019-04-26T23:04:05.737Z,47.96
2019-04-26T23:06:34.433Z,48.36
2019-04-26T23:09:03.157Z,48.14
2019-04-26T23:11:33.314Z,48.23
2019-04-26T23:14:19.770Z,48.31
2019-04-26T23:17:05.900Z,48.33
2019-04-26T23:19:28.295Z,48.49
2019-04-26T23:21:58.575Z,48.45
2019-04-26T23:24:27.254Z,48.58
2019-04-26T23:26:56.010Z,48.70
2019-04-26T23:29:24.701Z,48.65
2019-04-26T23:31:55.363Z,48.67
2019-04-26T23:34:25.232Z,48.60
2019-04-26T23:36:54.157Z,48.96
2019-04-26T23:39:24.558Z,48.90
2019-04-26T23:41:53.956Z,49.00
2019-04-26T23:44:23.260Z,48.89
2019-04-26T23:46:54.872Z,48.90
2019-04-26T23:49:23.317Z,49.21
2019-04-26T23:51:53.333Z,49.21
2019-04-26T23:54:23.720Z,49.12
2019-04-26T23:56:55.748Z,49.10
2019-04-26T23:59:24.672Z,49.34
